Cardiff Trader — 9HA3356 — position and weather

sailwx.info

Track history (hours):
 
Tides and Currents Weather Stations Pressure Air Temp Water Temp Dewpoint Dewpoint Depression Visibility Wind Speed Wind Dir Waves Ship Positions

Cardiff Trader

Last reported at 2018-Jun-20 23:50 UTC. Time now 2018-Jun-25 11:36 UTC.
Position N 22°30' E 119°35'.

Length 208 m; draft 8.3 m.

Type: Ship (hazmat cat A). MMSI: 229469000.

Date/timePositionNaut miles runAvg speedWind from/ knotsBaromVisibWave heightAir tempDewpointWater temp
2018-Jun-20 23:50N 22°30' E 119°35'512.4
2018-Jun-20 23:26N 22°30' E 119°40'512.4
2018-Jun-20 23:00N 22°30' E 119°46'612.3
2018-Jun-20 22:30N 22°31' E 119°53'712.5
2018-Jun-20 21:59N 22°32' E 119°60'713.3
2018-Jun-20 21:29N 22°32' E 120°07'713.8
2018-Jun-20 21:01N 22°33' E 120°14'5 9.7
2018-Jun-20 20:30N 22°34' E 120°19'1 1.9
2018-Jun-20 20:00N 22°34' E 120°18'0 0.0
2018-Jun-20 19:29N 22°34' E 120°18'0 0.0
2018-Jun-20 18:58N 22°34' E 120°18'0 0.0
2018-Jun-20 18:22N 22°34' E 120°18'0 0.0
2018-Jun-20 17:58N 22°34' E 120°18'0 0.0
2018-Jun-20 17:27N 22°34' E 120°18'0 0.0
2018-Jun-20 16:57N 22°34' E 120°18'0 0.0
2018-Jun-20 16:27N 22°34' E 120°18'0 0.0
2018-Jun-20 15:57N 22°34' E 120°18'0 0.0
2018-Jun-20 15:08N 22°34' E 120°18'0 0.0
2018-Jun-20 14:56N 22°34' E 120°18'0 0.0
2018-Jun-20 14:26N 22°34' E 120°18'0 0.0
2018-Jun-20 13:56N 22°34' E 120°18'0 0.0
2018-Jun-20 13:26N 22°34' E 120°18'0 0.0
2018-Jun-20 12:59N 22°34' E 120°18'1 1.6
2018-Jun-20 12:30N 22°34' E 120°19'3 5.6
2018-Jun-20 11:58N 22°32' E 120°16'4 9.1
2018-Jun-20 11:30N 22°34' E 120°12'714.7
2018-Jun-20 11:00N 22°40' E 120°08'1019.3
2018-Jun-20 10:28N 22°49' E 120°02'  
2018-Jun-17 08:46N 33°31' E 134°41'1418.1
2018-Jun-17 08:01N 33°42' E 134°51'117.9
2018-Jun-17 07:57N 33°43' E 134°52'1218.0
2018-Jun-17 07:17N 33°55' E 134°53'518.2
2018-Jun-17 07:00N 34°01' E 134°53'918.0
2018-Jun-17 06:30N 34°09' E 134°57'815.6
2018-Jun-17 06:01N 34°16' E 134°58'918.0
2018-Jun-17 05:31N 34°25' E 135°03'1019.4
2018-Jun-17 05:01N 34°32' E 135°11'917.3
2018-Jun-17 04:30N 34°37' E 135°20'5 9.9
2018-Jun-17 04:00N 34°39' E 135°25'1 2.0
2018-Jun-17 03:30N 34°38' E 135°26'0 0.0
2018-Jun-17 02:53N 34°38' E 135°26'0 0.0
2018-Jun-17 02:17N 34°38' E 135°26'0 0.0
2018-Jun-17 00:52N 34°38' E 135°26'0 0.0
2018-Jun-17 00:16N 34°38' E 135°26'0 0.0
2018-Jun-16 23:52N 34°38' E 135°26'0 0.0
2018-Jun-16 22:47N 34°38' E 135°26'0 1.2
2018-Jun-16 22:30N 34°39' E 135°26'3 5.6
2018-Jun-16 22:00N 34°38' E 135°23'611.3
2018-Jun-16 21:30N 34°39' E 135°16'2 3.2
2018-Jun-16 20:59N 34°39' E 135°15'0 0.0
2018-Jun-16 20:24N 34°39' E 135°15'0 0.0
2018-Jun-16 20:00N 34°39' E 135°15'0 0.0
2018-Jun-16 19:29N 34°39' E 135°15'0 0.0
2018-Jun-16 18:59N 34°39' E 135°15'0 0.0
2018-Jun-16 18:27N 34°39' E 135°15'0 0.0
2018-Jun-16 18:00N 34°39' E 135°15'0 0.0
2018-Jun-16 17:20N 34°39' E 135°15'0 0.0
2018-Jun-16 16:56N 34°39' E 135°15'0 0.0
2018-Jun-16 16:20N 34°39' E 135°15'0 0.0
2018-Jun-16 15:55N 34°39' E 135°15'0 0.0
2018-Jun-16 15:25N 34°39' E 135°15'0 0.0
2018-Jun-16 14:55N 34°39' E 135°15'0 0.0
2018-Jun-16 14:25N 34°39' E 135°15'0 0.0
2018-Jun-16 13:55N 34°39' E 135°15'0 0.0
2018-Jun-16 13:30N 34°39' E 135°15'0 0.0
2018-Jun-16 13:00N 34°39' E 135°15'0 0.0
2018-Jun-16 12:30N 34°39' E 135°15'1 1.1
2018-Jun-16 12:00N 34°39' E 135°15'510.8
2018-Jun-16 11:30N 34°34' E 135°14'714.3
2018-Jun-16 11:00N 34°28' E 135°09'815.4
2018-Jun-16 10:30N 34°22' E 135°03'917.6
2018-Jun-16 10:00N 34°14' E 134°59'611.3
2018-Jun-16 09:30N 34°08' E 134°60'5 9.9
2018-Jun-16 09:00N 34°03' E 134°59'611.0
2018-Jun-16 08:29N 33°58' E 134°59'711.9
2018-Jun-16 07:55N 33°51' E 134°59'512.1
2018-Jun-16 07:29N 33°46' E 135°02'611.7
2018-Jun-16 07:00N 33°41' E 135°05'238 7.2
2018-Jun-14 21:54N 35°02' E 139°37'615.6
2018-Jun-14 21:30N 35°05' E 139°43'714.1
2018-Jun-14 21:00N 35°12' E 139°46'611.8
2018-Jun-14 20:30N 35°18' E 139°44'612.8
2018-Jun-14 20:00N 35°24' E 139°42'3 5.3
2018-Jun-14 19:30N 35°26' E 139°41'0 0.6
2018-Jun-14 18:59N 35°26' E 139°41'0 0.0
2018-Jun-14 18:30N 35°26' E 139°41'0 0.0
2018-Jun-14 18:00N 35°26' E 139°41'0 0.0
2018-Jun-14 17:27N 35°26' E 139°41'0 0.0
2018-Jun-14 16:59N 35°26' E 139°41'0 0.0
2018-Jun-14 16:29N 35°26' E 139°41'0 0.0
2018-Jun-14 15:59N 35°26' E 139°41'0 0.0
2018-Jun-14 15:29N 35°26' E 139°41'0 0.0
2018-Jun-14 14:59N 35°26' E 139°41'0 0.0
2018-Jun-14 14:28N 35°26' E 139°41'0 0.0
2018-Jun-14 13:58N 35°26' E 139°41'0 0.0
2018-Jun-14 13:28N 35°26' E 139°41'0 0.0
2018-Jun-14 12:58N 35°26' E 139°41'0 0.0
2018-Jun-14 12:31N 35°26' E 139°41'0 0.0
2018-Jun-14 12:00N 35°26' E 139°41'0 0.1
2018-Jun-14 11:30N 35°26' E 139°41'1 1.9
2018-Jun-14 11:01N 35°27' E 139°42'3 6.6
2018-Jun-14 10:30N 35°27' E 139°46'612.7
2018-Jun-14 10:00N 35°31' E 139°51'611.5
2018-Jun-14 09:30N 35°36' E 139°47'1 0.1
2018-Jun-13 23:16N 35°37' E 139°47'0 1.2
2018-Jun-13 23:00N 35°36' E 139°47'4 8.4
2018-Jun-13 22:30N 35°33' E 139°50'713.8
2018-Jun-13 22:00N 35°26' E 139°49'713.7
2018-Jun-13 21:30N 35°21' E 139°45'611.6
2018-Jun-13 21:00N 35°15' E 139°47'611.2
2018-Jun-13 20:30N 35°10' E 139°46'4 7.5
2018-Jun-13 19:55N 35°05' E 139°44'510.8
2018-Jun-13 19:28N 35°02' E 139°40'  
Track history (hours):
 
Tides and Currents Weather Stations Pressure Air Temp Water Temp Dewpoint Dewpoint Depression Visibility Wind Speed Wind Dir Waves Ship Positions

Cardiff Trader

Last reported at 2018-Jun-20 23:50 UTC. Time now 2018-Jun-25 11:36 UTC.
Position N 22°30' E 119°35'.

Length 208 m; draft 8.3 m.

Type: Ship (hazmat cat A). MMSI: 229469000.

Date/timePositionNaut miles runAvg speedWind from/ knotsBaromVisibWave heightAir tempDewpointWater temp
2018-Jun-20 23:50N 22°30' E 119°35'512.4
2018-Jun-20 23:26N 22°30' E 119°40'512.4
2018-Jun-20 23:00N 22°30' E 119°46'612.3
2018-Jun-20 22:30N 22°31' E 119°53'712.5
2018-Jun-20 21:59N 22°32' E 119°60'713.3
2018-Jun-20 21:29N 22°32' E 120°07'713.8
2018-Jun-20 21:01N 22°33' E 120°14'5 9.7
2018-Jun-20 20:30N 22°34' E 120°19'1 1.9
2018-Jun-20 20:00N 22°34' E 120°18'0 0.0
2018-Jun-20 19:29N 22°34' E 120°18'0 0.0
2018-Jun-20 18:58N 22°34' E 120°18'0 0.0
2018-Jun-20 18:22N 22°34' E 120°18'0 0.0
2018-Jun-20 17:58N 22°34' E 120°18'0 0.0
2018-Jun-20 17:27N 22°34' E 120°18'0 0.0
2018-Jun-20 16:57N 22°34' E 120°18'0 0.0
2018-Jun-20 16:27N 22°34' E 120°18'0 0.0
2018-Jun-20 15:57N 22°34' E 120°18'0 0.0
2018-Jun-20 15:08N 22°34' E 120°18'0 0.0
2018-Jun-20 14:56N 22°34' E 120°18'0 0.0
2018-Jun-20 14:26N 22°34' E 120°18'0 0.0
2018-Jun-20 13:56N 22°34' E 120°18'0 0.0
2018-Jun-20 13:26N 22°34' E 120°18'0 0.0
2018-Jun-20 12:59N 22°34' E 120°18'1 1.6
2018-Jun-20 12:30N 22°34' E 120°19'3 5.6
2018-Jun-20 11:58N 22°32' E 120°16'4 9.1
2018-Jun-20 11:30N 22°34' E 120°12'714.7
2018-Jun-20 11:00N 22°40' E 120°08'1019.3
2018-Jun-20 10:28N 22°49' E 120°02'  
2018-Jun-17 08:46N 33°31' E 134°41'1418.1
2018-Jun-17 08:01N 33°42' E 134°51'117.9
2018-Jun-17 07:57N 33°43' E 134°52'1218.0
2018-Jun-17 07:17N 33°55' E 134°53'518.2
2018-Jun-17 07:00N 34°01' E 134°53'918.0
2018-Jun-17 06:30N 34°09' E 134°57'815.6
2018-Jun-17 06:01N 34°16' E 134°58'918.0
2018-Jun-17 05:31N 34°25' E 135°03'1019.4
2018-Jun-17 05:01N 34°32' E 135°11'917.3
2018-Jun-17 04:30N 34°37' E 135°20'5 9.9
2018-Jun-17 04:00N 34°39' E 135°25'1 2.0
2018-Jun-17 03:30N 34°38' E 135°26'0 0.0
2018-Jun-17 02:53N 34°38' E 135°26'0 0.0
2018-Jun-17 02:17N 34°38' E 135°26'0 0.0
2018-Jun-17 00:52N 34°38' E 135°26'0 0.0
2018-Jun-17 00:16N 34°38' E 135°26'0 0.0
2018-Jun-16 23:52N 34°38' E 135°26'0 0.0
2018-Jun-16 22:47N 34°38' E 135°26'0 1.2
2018-Jun-16 22:30N 34°39' E 135°26'3 5.6
2018-Jun-16 22:00N 34°38' E 135°23'611.3
2018-Jun-16 21:30N 34°39' E 135°16'2 3.2
2018-Jun-16 20:59N 34°39' E 135°15'0 0.0
2018-Jun-16 20:24N 34°39' E 135°15'0 0.0
2018-Jun-16 20:00N 34°39' E 135°15'0 0.0
2018-Jun-16 19:29N 34°39' E 135°15'0 0.0
2018-Jun-16 18:59N 34°39' E 135°15'0 0.0
2018-Jun-16 18:27N 34°39' E 135°15'0 0.0
2018-Jun-16 18:00N 34°39' E 135°15'0 0.0
2018-Jun-16 17:20N 34°39' E 135°15'0 0.0
2018-Jun-16 16:56N 34°39' E 135°15'0 0.0
2018-Jun-16 16:20N 34°39' E 135°15'0 0.0
2018-Jun-16 15:55N 34°39' E 135°15'0 0.0
2018-Jun-16 15:25N 34°39' E 135°15'0 0.0
2018-Jun-16 14:55N 34°39' E 135°15'0 0.0
2018-Jun-16 14:25N 34°39' E 135°15'0 0.0
2018-Jun-16 13:55N 34°39' E 135°15'0 0.0
2018-Jun-16 13:30N 34°39' E 135°15'0 0.0
2018-Jun-16 13:00N 34°39' E 135°15'0 0.0
2018-Jun-16 12:30N 34°39' E 135°15'1 1.1
2018-Jun-16 12:00N 34°39' E 135°15'510.8
2018-Jun-16 11:30N 34°34' E 135°14'714.3
2018-Jun-16 11:00N 34°28' E 135°09'815.4
2018-Jun-16 10:30N 34°22' E 135°03'917.6
2018-Jun-16 10:00N 34°14' E 134°59'611.3
2018-Jun-16 09:30N 34°08' E 134°60'5 9.9
2018-Jun-16 09:00N 34°03' E 134°59'611.0
2018-Jun-16 08:29N 33°58' E 134°59'711.9
2018-Jun-16 07:55N 33°51' E 134°59'512.1
2018-Jun-16 07:29N 33°46' E 135°02'611.7
2018-Jun-16 07:00N 33°41' E 135°05'238 7.2
2018-Jun-14 21:54N 35°02' E 139°37'615.6
2018-Jun-14 21:30N 35°05' E 139°43'714.1
2018-Jun-14 21:00N 35°12' E 139°46'611.8
2018-Jun-14 20:30N 35°18' E 139°44'612.8
2018-Jun-14 20:00N 35°24' E 139°42'3 5.3
2018-Jun-14 19:30N 35°26' E 139°41'0 0.6
2018-Jun-14 18:59N 35°26' E 139°41'0 0.0
2018-Jun-14 18:30N 35°26' E 139°41'0 0.0
2018-Jun-14 18:00N 35°26' E 139°41'0 0.0
2018-Jun-14 17:27N 35°26' E 139°41'0 0.0
2018-Jun-14 16:59N 35°26' E 139°41'0 0.0
2018-Jun-14 16:29N 35°26' E 139°41'0 0.0
2018-Jun-14 15:59N 35°26' E 139°41'0 0.0
2018-Jun-14 15:29N 35°26' E 139°41'0 0.0
2018-Jun-14 14:59N 35°26' E 139°41'0 0.0
2018-Jun-14 14:28N 35°26' E 139°41'0 0.0
2018-Jun-14 13:58N 35°26' E 139°41'0 0.0
2018-Jun-14 13:28N 35°26' E 139°41'0 0.0
2018-Jun-14 12:58N 35°26' E 139°41'0 0.0
2018-Jun-14 12:31N 35°26' E 139°41'0 0.0
2018-Jun-14 12:00N 35°26' E 139°41'0 0.1
2018-Jun-14 11:30N 35°26' E 139°41'1 1.9
2018-Jun-14 11:01N 35°27' E 139°42'3 6.6
2018-Jun-14 10:30N 35°27' E 139°46'612.7
2018-Jun-14 10:00N 35°31' E 139°51'611.5
2018-Jun-14 09:30N 35°36' E 139°47'1 0.1
2018-Jun-13 23:16N 35°37' E 139°47'0 1.2
2018-Jun-13 23:00N 35°36' E 139°47'4 8.4
2018-Jun-13 22:30N 35°33' E 139°50'713.8
2018-Jun-13 22:00N 35°26' E 139°49'713.7
2018-Jun-13 21:30N 35°21' E 139°45'611.6
2018-Jun-13 21:00N 35°15' E 139°47'611.2
2018-Jun-13 20:30N 35°10' E 139°46'4 7.5
2018-Jun-13 19:55N 35°05' E 139°44'510.8
2018-Jun-13 19:28N 35°02' E 139°40'  

Dump ship's entire track history